Terminal Aerodrome Forecast
Issued by NWS

Home | Current Version | Previous Version | Text Only | Print | Product List | Glossary On
Versions: 1 2 3 4 5 6 7 8 9 10 11 12
628
FTUS46 KSEW 230555
TAFBLI
TAF
KBLI 230555Z 2306/2406 VRB03KT P6SM SKC
     FM231400 18008KT P6SM SCT250
     FM231800 18010KT P6SM SCT200
     FM240000 19015G20KT P6SM BKN050=

USA.gov is the U.S. government's official web portal to all federal, state and local government web resources and services.